Time;durP1;ratioP1;P1;durP2;ratioP2;P2;SDS_P1;SDS_P2;PMS_P1;PMS_P2;Temp;Humidity;BMP_temperature;BMP_pressure;BME280_temperature;BME280_humidity;BME280_pressure;Samples;Min_cycle;Max_cycle;Signal;HPM_P1;HPM_P2
2022/05/17 00:00:01;;;;;;;9.43;3.25;;;;;;;18.59;66.42;101876.31;4998648;28;20050;-48
2022/05/17 00:02:39;;;;;;;8.65;2.97;;;;;;;18.58;66.43;101882.91;5034499;28;20068;-49
2022/05/17 00:05:07;;;;;;;7.65;3.30;;;;;;;18.56;66.39;101881.56;5016851;28;20522;-50
2022/05/17 00:07:36;;;;;;;7.65;2.70;;;;;;;18.55;66.41;101880.75;5033646;28;20041;-48
2022/05/17 00:10:04;;;;;;;10.13;3.70;;;;;;;18.53;66.39;101877.47;5010993;28;20052;-49
2022/05/17 00:12:34;;;;;;;9.73;3.30;;;;;;;18.52;66.40;101884.13;5033737;28;20037;-47
2022/05/17 00:15:02;;;;;;;11.35;3.38;;;;;;;18.52;66.62;101884.13;5034478;28;20052;-50
2022/05/17 00:17:30;;;;;;;9.80;3.10;;;;;;;18.49;66.64;101877.22;5015194;28;20511;-48
2022/05/17 00:19:58;;;;;;;7.95;3.13;;;;;;;18.48;66.66;101872.03;5031179;28;20072;-51
2022/05/17 00:22:26;;;;;;;9.13;3.40;;;;;;;18.46;66.75;101874.25;5016782;28;20492;-48
2022/05/17 00:24:54;;;;;;;8.48;3.13;;;;;;;18.46;66.79;101869.56;5034377;28;20124;-52
2022/05/17 00:27:23;;;;;;;10.00;3.17;;;;;;;18.46;66.89;101877.00;5024684;28;20121;-47
2022/05/17 00:29:51;;;;;;;12.38;3.88;;;;;;;18.45;66.91;101869.88;5017761;28;20052;-48
2022/05/17 00:32:19;;;;;;;11.05;3.10;;;;;;;18.43;67.10;101870.16;5033361;28;20052;-49
2022/05/17 00:34:48;;;;;;;8.50;3.13;;;;;;;18.41;67.07;101875.13;5034206;28;20048;-49
2022/05/17 00:37:16;;;;;;;11.13;3.42;;;;;;;18.41;67.17;101874.31;5029025;28;20416;-49
2022/05/17 00:39:44;;;;;;;11.82;3.40;;;;;;;18.38;67.35;101869.41;4998859;28;20045;-50
2022/05/17 00:42:11;;;;;;;8.98;3.53;;;;;;;18.31;67.50;101865.06;5032158;28;20433;-51
2022/05/17 00:44:45;;;;;;;10.95;4.00;;;;;;;18.24;67.84;101864.59;5033932;28;20072;-48
2022/05/17 00:47:15;;;;;;;12.68;3.58;;;;;;;18.17;68.11;101868.81;5023144;28;20488;-48
2022/05/17 00:49:50;;;;;;;10.63;3.28;;;;;;;18.12;68.52;101871.63;5014218;28;20042;-49
2022/05/17 00:52:23;;;;;;;11.20;3.40;;;;;;;18.06;68.83;101870.84;5015121;28;20443;-49
2022/05/17 00:54:52;;;;;;;8.52;3.25;;;;;;;18.04;68.86;101867.59;5013822;28;20068;-47
2022/05/17 00:57:38;;;;;;;9.07;3.67;;;;;;;17.99;69.14;101868.47;4998132;28;20045;-48
2022/05/17 01:00:12;;;;;;;11.35;3.70;;;;;;;18.01;68.99;101862.66;4997464;28;20037;-51
2022/05/17 01:02:53;;;;;;;12.00;3.65;;;;;;;18.05;68.85;101866.47;4997257;28;20050;-48
2022/05/17 01:05:25;;;;;;;11.38;3.72;;;;;;;18.07;68.63;101867.00;4996054;28;20056;-51
2022/05/17 01:08:00;;;;;;;8.13;3.20;;;;;;;18.09;68.44;101862.03;4998893;28;20060;-49
2022/05/17 01:10:43;;;;;;;8.27;3.47;;;;;;;18.11;68.26;101859.75;4985879;28;20070;-48
2022/05/17 01:16:26;;;;;;;9.95;3.67;;;;;;;18.07;68.27;101855.97;5013283;28;20467;-47
2022/05/17 01:18:54;;;;;;;9.60;3.40;;;;;;;18.02;68.32;101848.56;4996066;28;20046;-48
2022/05/17 01:21:22;;;;;;;8.38;3.70;;;;;;;17.96;68.56;101859.94;5027944;28;20037;-49
2022/05/17 01:23:49;;;;;;;8.55;3.42;;;;;;;17.95;68.58;101863.84;5014321;28;20501;-49
2022/05/17 01:26:20;;;;;;;9.75;3.83;;;;;;;17.98;68.66;101866.00;5013053;28;20128;-48
2022/05/17 01:28:48;;;;;;;8.93;3.60;;;;;;;17.98;68.48;101857.72;5013380;28;20046;-49
2022/05/17 01:31:17;;;;;;;11.38;4.22;;;;;;;17.97;68.57;101850.56;5003818;28;20064;-49
2022/05/17 01:33:44;;;;;;;7.95;3.47;;;;;;;17.97;68.63;101845.06;5015241;28;20099;-49
2022/05/17 01:36:15;;;;;;;9.18;3.38;;;;;;;17.98;68.66;101855.78;5031319;28;20038;-50
2022/05/17 01:38:50;;;;;;;7.25;3.15;;;;;;;17.98;68.63;101858.53;5003277;28;20042;-49
2022/05/17 01:41:20;;;;;;;9.75;3.20;;;;;;;17.99;68.63;101860.19;5014990;28;20092;-46
2022/05/17 01:43:50;;;;;;;11.68;3.95;;;;;;;17.99;68.57;101856.59;4980516;28;20042;-46
2022/05/17 01:46:20;;;;;;;9.85;3.30;;;;;;;17.99;68.54;101853.84;5013208;28;20128;-48
2022/05/17 01:48:47;;;;;;;11.35;3.70;;;;;;;17.96;68.61;101854.44;5001751;28;20049;-45
2022/05/17 01:51:15;;;;;;;12.05;4.05;;;;;;;17.93;68.88;101860.53;5013378;28;20037;-43
2022/05/17 01:53:43;;;;;;;9.57;3.92;;;;;;;17.92;68.91;101856.97;4998622;28;20128;-47
2022/05/17 01:56:11;;;;;;;11.82;3.90;;;;;;;17.90;69.04;101856.44;5014277;28;20488;-47
2022/05/17 01:58:39;;;;;;;11.05;3.42;;;;;;;17.91;69.16;101851.72;5030861;28;20051;-48
2022/05/17 02:01:09;;;;;;;10.40;3.25;;;;;;;17.93;68.84;101855.03;5008607;28;20416;-45
2022/05/17 02:03:37;;;;;;;10.65;3.78;;;;;;;17.93;68.74;101855.03;5012542;28;20077;-50
2022/05/17 02:06:05;;;;;;;9.55;4.03;;;;;;;17.96;68.73;101859.94;5012734;28;20523;-45
2022/05/17 02:08:33;;;;;;;9.15;3.70;;;;;;;17.97;68.87;101867.13;5001820;28;20049;-44
2022/05/17 02:11:01;;;;;;;8.70;3.35;;;;;;;17.96;68.94;101859.94;5012413;28;20132;-45
2022/05/17 02:13:28;;;;;;;9.15;3.40;;;;;;;17.96;68.85;101860.75;5013144;28;20046;-49
2022/05/17 02:15:56;;;;;;;9.82;4.07;;;;;;;17.97;68.85;101861.59;5013657;28;20409;-45
2022/05/17 02:18:24;;;;;;;10.95;3.70;;;;;;;17.96;68.92;101855.25;4997266;28;20033;-47
2022/05/17 02:20:52;;;;;;;9.15;3.63;;;;;;;17.95;68.89;101863.84;5025721;28;20049;-46
2022/05/17 02:23:19;;;;;;;9.82;3.58;;;;;;;17.95;69.00;101874.88;5012925;28;20038;-52
2022/05/17 02:25:47;;;;;;;10.65;4.13;;;;;;;17.93;69.11;101877.09;5012314;28;20053;-51
2022/05/17 02:28:15;;;;;;;9.10;3.80;;;;;;;17.93;68.83;101874.31;5012332;28;20050;-50
2022/05/17 02:30:43;;;;;;;8.90;4.07;;;;;;;17.92;69.20;101869.91;5013490;28;20053;-46
2022/05/17 02:33:12;;;;;;;11.55;4.03;;;;;;;17.92;69.16;101879.03;4997859;28;20042;-43
2022/05/17 02:35:40;;;;;;;9.60;3.97;;;;;;;17.92;69.08;101869.91;4999899;28;20142;-44
2022/05/17 02:38:08;;;;;;;10.27;3.78;;;;;;;17.91;69.04;101873.78;5017607;28;20151;-45
2022/05/17 02:40:36;;;;;;;11.05;3.53;;;;;;;17.90;69.32;101867.47;5018853;28;20107;-47
2022/05/17 02:43:05;;;;;;;13.05;4.10;;;;;;;17.89;69.45;101876.84;5002110;28;20373;-48
2022/05/17 02:45:33;;;;;;;12.63;4.22;;;;;;;17.88;69.18;101876.00;5026957;28;20042;-47
2022/05/17 02:48:00;;;;;;;9.70;3.58;;;;;;;17.88;69.56;101876.00;5016296;28;20041;-47
2022/05/17 02:50:28;;;;;;;11.68;3.70;;;;;;;17.87;69.65;101876.28;5020058;28;20033;-46
2022/05/17 02:52:56;;;;;;;13.32;4.18;;;;;;;17.86;69.62;101877.41;5034228;28;20047;-46
2022/05/17 02:55:24;;;;;;;14.38;4.30;;;;;;;17.86;69.57;101878.25;5031586;28;20520;-50
2022/05/17 02:57:53;;;;;;;8.85;3.80;;;;;;;17.85;69.47;101876.59;5028759;28;20038;-49
2022/05/17 03:00:21;;;;;;;10.32;4.53;;;;;;;17.85;69.65;101876.59;5031204;28;20044;-49
2022/05/17 03:02:50;;;;;;;10.50;4.00;;;;;;;17.84;69.81;101880.47;5016272;28;20075;-49
2022/05/17 03:05:17;;;;;;;8.77;3.88;;;;;;;17.82;69.69;101882.72;5015597;28;20060;-50
2022/05/17 03:07:46;;;;;;;12.15;4.07;;;;;;;17.83;69.80;101889.84;5002973;28;20131;-49
2022/05/17 03:10:13;;;;;;;12.43;4.07;;;;;;;17.80;69.97;101895.97;5019419;28;20073;-50
2022/05/17 03:12:41;;;;;;;12.68;4.70;;;;;;;17.80;70.09;101895.13;5017098;28;20057;-50
2022/05/17 03:15:09;;;;;;;9.95;4.00;;;;;;;17.78;69.97;101887.13;5035632;28;20038;-48
2022/05/17 03:17:38;;;;;;;13.55;4.40;;;;;;;17.74;70.21;101891.56;5012069;28;20487;-49
2022/05/17 03:20:06;;;;;;;12.10;5.00;;;;;;;17.71;70.45;101891.34;5027224;28;20052;-48
2022/05/17 03:22:34;;;;;;;10.30;4.05;;;;;;;17.69;70.56;101883.34;5031548;28;20506;-47
2022/05/17 03:25:03;;;;;;;11.70;4.55;;;;;;;17.68;70.54;101881.72;5035314;28;20456;-48
2022/05/17 03:27:51;;;;;;;11.05;4.60;;;;;;;17.70;70.57;101879.47;5030621;28;20045;-47
2022/05/17 03:30:20;;;;;;;14.23;4.28;;;;;;;17.70;70.65;101887.72;5017626;28;20041;-49
2022/05/17 03:32:48;;;;;;;11.75;4.53;;;;;;;17.70;70.50;101884.97;5032517;28;20057;-52
2022/05/17 03:35:15;;;;;;;9.10;4.13;;;;;;;17.71;70.90;101883.88;4997483;28;20045;-51
2022/05/17 03:37:43;;;;;;;15.75;4.07;;;;;;;17.68;70.80;101881.72;5016302;28;20053;-50
2022/05/17 03:40:12;;;;;;;14.02;4.75;;;;;;;17.60;71.34;101885.06;5015492;28;20074;-51
2022/05/17 03:42:40;;;;;;;21.70;5.22;;;;;;;17.50;71.98;101890.69;4998680;28;20038;-51
2022/05/17 03:45:08;;;;;;;11.80;4.57;;;;;;;17.43;72.61;101880.81;5014197;28;20046;-51
2022/05/17 03:47:36;;;;;;;10.50;4.32;;;;;;;17.40;72.65;101886.91;4982012;28;20061;-52
2022/05/17 03:50:05;;;;;;;12.07;4.63;;;;;;;17.37;73.02;101881.16;5020391;28;20049;-50
2022/05/17 03:52:33;;;;;;;11.82;3.97;;;;;;;17.38;73.34;101885.56;5016354;28;20030;-47
2022/05/17 03:55:01;;;;;;;14.48;4.68;;;;;;;17.36;73.50;101888.59;5016650;28;20046;-47
2022/05/17 03:57:29;;;;;;;14.77;4.10;;;;;;;17.36;73.60;101882.25;5015440;28;20495;-47
2022/05/17 03:59:58;;;;;;;10.20;4.25;;;;;;;17.38;73.46;101880.84;5022856;28;20555;-47
2022/05/17 04:02:25;;;;;;;11.02;4.45;;;;;;;17.39;73.41;101890.78;5031890;28;20045;-49
2022/05/17 04:04:54;;;;;;;11.80;4.45;;;;;;;17.38;73.50;101893.81;5015958;28;20041;-50
2022/05/17 04:07:22;;;;;;;11.65;4.45;;;;;;;17.39;73.73;101895.44;5015392;28;20065;-47
2022/05/17 04:09:50;;;;;;;10.55;4.32;;;;;;;17.41;73.54;101888.56;5031058;28;20457;-51
2022/05/17 04:12:18;;;;;;;14.95;4.93;;;;;;;17.44;73.29;101890.72;5033037;28;20053;-48
2022/05/17 04:14:45;;;;;;;14.43;5.15;;;;;;;17.46;73.17;101896.78;5031854;28;20033;-48
2022/05/17 04:17:13;;;;;;;11.65;4.57;;;;;;;17.50;72.93;101890.69;5032990;28;20436;-48
2022/05/17 04:19:40;;;;;;;12.57;4.50;;;;;;;17.52;72.82;101894.81;5024495;28;20046;-50
2022/05/17 04:22:09;;;;;;;15.00;4.80;;;;;;;17.53;72.37;101898.38;5013500;28;20046;-49
2022/05/17 04:24:41;;;;;;;12.60;4.50;;;;;;;17.53;72.53;101903.88;5012204;28;20489;-47
2022/05/17 04:27:12;;;;;;;10.85;4.75;;;;;;;17.54;72.38;101905.53;5014770;28;20492;-51
2022/05/17 04:29:39;;;;;;;12.93;5.13;;;;;;;17.54;72.35;101902.78;5015474;28;20069;-47
2022/05/17 04:32:08;;;;;;;10.60;4.45;;;;;;;17.55;72.39;101905.25;4998131;28;20050;-49
2022/05/17 04:34:37;;;;;;;15.43;4.68;;;;;;;17.57;72.49;101907.72;5014184;28;20423;-50
2022/05/17 04:37:05;;;;;;;11.18;4.72;;;;;;;17.58;72.27;101903.84;5014129;28;20058;-50
2022/05/17 04:39:33;;;;;;;11.90;4.60;;;;;;;17.58;72.25;101892.81;5003669;28;20046;-50
2022/05/17 04:42:00;;;;;;;11.38;4.68;;;;;;;17.58;72.30;101904.69;4997374;28;20484;-47
2022/05/17 04:44:28;;;;;;;9.80;4.10;;;;;;;17.57;72.37;101903.03;5014998;28;20439;-48
2022/05/17 04:46:56;;;;;;;13.73;5.20;;;;;;;17.59;72.43;101911.00;4999252;28;20034;-46
2022/05/17 04:49:23;;;;;;;10.23;4.53;;;;;;;17.59;72.34;101909.06;5031801;28;20041;-49
2022/05/17 04:51:52;;;;;;;14.23;5.50;;;;;;;17.57;72.85;101907.72;5015671;28;20038;-50
2022/05/17 04:54:21;;;;;;;11.57;4.40;;;;;;;17.61;72.38;101914.31;5015298;28;20042;-48
2022/05/17 04:56:48;;;;;;;9.48;4.13;;;;;;;17.63;72.41;101909.28;4990243;28;20052;-49
2022/05/17 04:59:22;;;;;;;10.25;4.00;;;;;;;17.65;72.38;101916.19;5032158;28;20053;-49
2022/05/17 05:01:50;;;;;;;8.70;4.05;;;;;;;17.65;72.30;101913.44;5016171;28;20516;-49
2022/05/17 05:04:18;;;;;;;14.18;4.15;;;;;;;17.68;72.28;101914.78;5032861;28;20140;-49
2022/05/17 05:06:45;;;;;;;14.40;4.63;;;;;;;17.67;72.35;101918.63;5033428;28;20493;-48
2022/05/17 05:09:13;;;;;;;9.18;3.92;;;;;;;17.70;72.49;101917.25;5021537;28;20038;-50
2022/05/17 05:11:42;;;;;;;9.65;4.28;;;;;;;17.72;72.27;101920.53;5013618;28;20038;-47
2022/05/17 05:14:09;;;;;;;14.32;4.38;;;;;;;17.71;72.46;101914.22;5027417;28;20423;-50
2022/05/17 05:16:38;;;;;;;11.85;4.00;;;;;;;17.72;72.18;101926.03;5023852;28;20051;-43
2022/05/17 05:19:05;;;;;;;10.63;4.32;;;;;;;17.72;72.34;101929.63;5014362;28;20056;-44
2022/05/17 05:21:33;;;;;;;8.00;3.88;;;;;;;17.72;72.24;101926.88;5014436;28;20488;-48
2022/05/17 05:24:07;;;;;;;8.63;4.00;;;;;;;17.74;72.36;101941.19;5018251;28;20408;-49
2022/05/17 05:26:35;;;;;;;11.35;4.72;;;;;;;17.76;72.30;101938.16;5023262;28;20042;-48
2022/05/17 05:29:03;;;;;;;13.05;4.82;;;;;;;17.78;72.43;101935.94;5028390;28;20152;-48
2022/05/17 05:31:30;;;;;;;13.95;5.20;;;;;;;17.79;72.41;101943.88;5032836;28;20072;-50
2022/05/17 05:34:00;;;;;;;13.00;4.80;;;;;;;17.78;72.58;101947.78;5032510;28;20045;-48
2022/05/17 05:36:29;;;;;;;10.60;4.30;;;;;;;17.79;72.59;101948.59;5030550;28;20072;-47
2022/05/17 05:38:57;;;;;;;13.55;5.13;;;;;;;17.79;72.72;101938.38;5020832;28;20095;-47
2022/05/17 05:41:24;;;;;;;12.95;4.97;;;;;;;17.80;72.86;101948.34;5031738;28;20182;-49
2022/05/17 05:43:52;;;;;;;9.80;4.15;;;;;;;17.83;72.52;101949.69;5032747;28;20048;-51
2022/05/17 05:46:20;;;;;;;10.20;4.53;;;;;;;17.83;72.49;101947.75;5031927;28;20051;-50
2022/05/17 05:48:48;;;;;;;9.40;4.30;;;;;;;17.86;72.18;101954.63;5015179;28;20068;-49
2022/05/17 05:51:15;;;;;;;14.27;5.55;;;;;;;17.88;72.49;101947.69;5013894;28;20038;-51
2022/05/17 05:53:43;;;;;;;13.35;4.82;;;;;;;17.91;72.13;101948.25;5012637;28;20112;-48
2022/05/17 05:56:11;;;;;;;10.18;4.32;;;;;;;17.93;72.20;101951.53;5012803;28;20042;-47
2022/05/17 05:58:42;;;;;;;11.00;4.80;;;;;;;17.95;72.30;101963.09;5025445;28;20033;-51
2022/05/17 06:01:10;;;;;;;13.05;5.07;;;;;;;17.96;72.44;101961.97;5032626;28;20041;-53
2022/05/17 06:03:38;;;;;;;11.32;4.80;;;;;;;17.96;72.37;101959.22;5030133;28;20044;-49
2022/05/17 06:06:08;;;;;;;14.73;5.47;;;;;;;17.97;72.63;101966.41;5015493;28;20096;-46
2022/05/17 06:08:36;;;;;;;12.43;4.57;;;;;;;17.96;72.52;101965.56;5015773;28;20030;-47
2022/05/17 06:11:04;;;;;;;10.80;4.32;;;;;;;18.01;72.33;101965.50;5033320;28;20124;-51
2022/05/17 06:13:32;;;;;;;10.57;3.95;;;;;;;18.03;72.51;101976.25;5033063;28;20041;-51
2022/05/17 06:16:00;;;;;;;14.35;5.10;;;;;;;18.04;72.91;101975.16;5010599;28;20144;-49
2022/05/17 06:18:28;;;;;;;15.57;6.38;;;;;;;18.04;73.08;101975.16;5014405;28;20042;-50
2022/05/17 06:20:56;;;;;;;14.43;5.43;;;;;;;18.04;73.45;101975.16;5032388;28;20041;-49
2022/05/17 06:23:26;;;;;;;13.52;5.97;;;;;;;18.04;73.58;101977.91;5014307;28;20346;-53
2022/05/17 06:25:53;;;;;;;14.77;4.90;;;;;;;18.06;73.09;101970.16;5032249;28;20044;-49
2022/05/17 06:28:21;;;;;;;16.27;5.63;;;;;;;18.06;73.35;101978.41;5026539;28;20044;-48
2022/05/17 06:30:48;;;;;;;13.48;5.72;;;;;;;18.06;73.42;101981.19;5031350;28;20049;-51
2022/05/17 06:33:17;;;;;;;10.52;4.88;;;;;;;18.07;73.49;101983.66;5032490;28;20562;-49
2022/05/17 06:35:45;;;;;;;17.35;5.90;;;;;;;18.09;73.44;101986.13;5014192;28;20038;-49
2022/05/17 06:38:16;;;;;;;14.35;5.88;;;;;;;18.07;73.72;101986.41;5008666;28;20144;-50
2022/05/17 06:40:44;;;;;;;17.27;6.05;;;;;;;18.09;73.93;101988.91;5028128;28;20065;-50
2022/05/17 06:43:12;;;;;;;16.63;6.00;;;;;;;18.10;73.89;101982.25;5012523;28;20046;-50
2022/05/17 06:45:40;;;;;;;11.50;5.05;;;;;;;18.11;73.92;101981.13;5025783;28;20065;-48
2022/05/17 06:48:08;;;;;;;17.23;6.13;;;;;;;18.12;74.33;101990.25;5014274;28;20425;-47
2022/05/17 06:50:36;;;;;;;14.02;6.50;;;;;;;18.10;73.97;101994.09;5032006;28;20045;-51
2022/05/17 06:53:05;;;;;;;14.02;5.38;;;;;;;18.10;74.11;101993.28;5026746;28;20060;-46
2022/05/17 06:55:33;;;;;;;17.23;6.53;;;;;;;18.09;74.39;101986.13;5013413;28;20056;-49
2022/05/17 06:58:02;;;;;;;15.10;6.70;;;;;;;18.10;74.23;101996.03;5025255;28;20500;-52
2022/05/17 07:00:31;;;;;;;20.15;7.18;;;;;;;18.10;74.18;101998.81;5031954;28;20041;-48
2022/05/17 07:02:59;;;;;;;17.15;6.20;;;;;;;18.11;73.74;102000.44;5031897;28;20055;-50
2022/05/17 07:05:28;;;;;;;17.88;6.45;;;;;;;18.11;73.60;102008.72;5027403;28;20038;-47
2022/05/17 07:08:00;;;;;;;13.77;6.45;;;;;;;18.13;73.38;102002.91;5013753;28;20048;-48
2022/05/17 07:13:14;;;;;;;20.52;6.82;;;;;;;18.18;73.37;102011.94;4994919;28;20042;-49
2022/05/17 07:15:44;;;;;;;19.55;6.80;;;;;;;18.15;73.82;102004.25;5025645;28;20042;-50
2022/05/17 07:18:15;;;;;;;19.33;7.13;;;;;;;18.17;73.85;101999.28;5031475;28;20037;-50
2022/05/17 07:20:43;;;;;;;15.30;6.25;;;;;;;18.15;74.17;101996.00;5034821;28;20419;-48
2022/05/17 07:23:12;;;;;;;13.88;5.78;;;;;;;18.14;74.85;102008.16;5035695;28;20048;-48
2022/05/17 07:25:41;;;;;;;14.30;6.10;;;;;;;18.14;74.96;102015.59;5025557;28;20069;-50
2022/05/17 07:28:12;;;;;;;17.75;6.63;;;;;;;18.13;75.31;102017.53;5015748;28;20075;-50
2022/05/17 07:30:40;;;;;;;23.60;6.80;;;;;;;18.13;75.52;102020.28;5007099;28;20044;-50
2022/05/17 07:33:08;;;;;;;13.55;5.90;;;;;;;18.13;75.62;102020.28;5035233;28;20380;-47
2022/05/17 07:35:35;;;;;;;13.57;5.75;;;;;;;18.12;75.15;102018.66;5020031;28;20034;-50
2022/05/17 07:38:04;;;;;;;16.48;6.50;;;;;;;18.17;74.14;102015.84;5022595;28;20049;-51
2022/05/17 07:40:32;;;;;;;16.98;6.13;;;;;;;18.15;74.56;102022.75;5035460;28;20072;-52
2022/05/17 07:43:00;;;;;;;15.30;5.72;;;;;;;18.13;74.61;102023.03;5034220;28;20045;-53
2022/05/17 07:45:28;;;;;;;13.38;5.28;;;;;;;18.12;73.75;102017.84;5033658;28;20439;-51
2022/05/17 07:47:55;;;;;;;11.82;5.45;;;;;;;18.08;74.16;102006.53;5034013;28;20041;-53
2022/05/17 07:50:23;;;;;;;13.35;5.35;;;;;;;18.07;74.92;102007.66;5016247;28;20038;-52
2022/05/17 07:52:50;;;;;;;15.23;5.38;;;;;;;18.08;75.32;102009.28;5034678;28;20034;-54
2022/05/17 07:55:19;;;;;;;14.63;5.68;;;;;;;18.10;75.63;102016.16;5021523;28;20509;-47
2022/05/17 07:57:47;;;;;;;12.00;5.18;;;;;;;18.12;75.38;102013.13;5034793;28;20125;-48
2022/05/17 08:00:15;;;;;;;11.98;6.28;;;;;;;18.14;75.77;102018.38;5034821;28;20049;-48
2022/05/17 08:02:43;;;;;;;12.77;6.45;;;;;;;18.13;76.66;102017.53;5017589;28;20440;-50
2022/05/17 08:05:11;;;;;;;15.10;6.55;;;;;;;18.16;77.08;102018.88;5033084;28;20061;-49
2022/05/17 08:07:39;;;;;;;12.35;5.55;;;;;;;18.20;77.43;102015.25;5033615;28;20663;-51
2022/05/17 08:10:07;;;;;;;12.80;6.45;;;;;;;18.23;78.48;102014.69;5017952;28;20049;-47
2022/05/17 08:12:34;;;;;;;22.35;13.10;;;;;;;18.24;77.83;102010.81;5035390;28;20041;-50
2022/05/17 08:15:03;;;;;;;17.58;9.85;;;;;;;18.30;77.10;102011.56;5023554;28;20139;-49
2022/05/17 08:17:30;;;;;;;16.73;6.88;;;;;;;18.33;76.25;102015.69;5035404;28;20059;-50
2022/05/17 08:19:58;;;;;;;13.50;6.40;;;;;;;18.33;75.99;102018.44;5035680;28;20038;-46
2022/05/17 08:22:26;;;;;;;18.58;6.50;;;;;;;18.34;76.07;102015.41;5034174;28;20050;-51
2022/05/17 08:27:39;;;;;;;14.98;6.88;;;;;;;18.41;76.13;102020.59;5035437;28;20480;-52
2022/05/17 08:30:10;;;;;;;14.82;6.22;;;;;;;18.45;75.92;102016.13;5034383;28;20045;-50
2022/05/17 08:35:50;;;;;;;13.30;6.38;;;;;;;18.51;75.73;102021.28;5014301;28;20413;-48
2022/05/17 08:38:29;;;;;;;21.73;7.68;;;;;;;18.56;75.54;102025.94;5014211;28;20069;-48
2022/05/17 08:41:17;;;;;;;16.67;7.32;;;;;;;18.58;74.60;102026.47;5019325;28;20543;-49
2022/05/17 08:44:03;;;;;;;16.95;7.45;;;;;;;18.56;74.18;102019.59;5031905;28;20057;-49
2022/05/17 08:46:39;;;;;;;12.30;6.25;;;;;;;18.55;73.54;102018.78;4321089;28;10000926;-48
2022/05/17 08:49:26;;;;;;;13.50;5.72;;;;;;;18.53;73.09;102021.81;4993547;28;20093;-47
2022/05/17 08:51:59;;;;;;;15.88;6.00;;;;;;;18.53;72.51;102024.56;5022175;28;20052;-48
2022/05/17 08:54:30;;;;;;;14.60;5.82;;;;;;;18.55;72.80;102026.25;5029465;28;20045;-48
2022/05/17 08:57:14;;;;;;;20.48;9.13;;;;;;;18.56;73.24;102030.63;5030724;28;20046;-49
2022/05/17 08:59:44;;;;;;;15.45;5.78;;;;;;;18.58;72.50;102026.47;5013119;28;20065;-49
2022/05/17 09:02:17;;;;;;;14.27;6.03;;;;;;;18.61;72.54;102036.09;5012390;28;20510;-51
2022/05/17 09:04:53;;;;;;;11.40;4.70;;;;;;;18.59;72.54;102030.03;5010561;28;20136;-47
2022/05/17 09:07:23;;;;;;;17.35;5.93;;;;;;;18.57;72.50;102019.31;5030251;28;20598;-49
2022/05/17 09:10:15;;;;;;;20.42;7.47;;;;;;;18.53;73.08;102010.78;5030439;28;20140;-49
2022/05/17 09:12:52;;;;;;;16.48;5.38;;;;;;;18.56;72.87;102006.59;5009985;28;20032;-50
2022/05/17 09:15:21;;;;;;;12.45;5.28;;;;;;;18.59;73.04;101999.69;5010988;28;20041;-45
2022/05/17 09:17:49;;;;;;;12.38;5.63;;;;;;;18.61;73.03;101998.25;5030409;28;20049;-46
2022/05/17 09:20:30;;;;;;;13.82;4.80;;;;;;;18.65;73.27;102004.03;5032196;28;20047;-48
2022/05/17 09:22:58;;;;;;;16.13;7.05;;;;;;;18.69;75.06;102003.16;5013763;28;20415;-48
2022/05/17 09:25:45;;;;;;;14.43;5.57;;;;;;;18.74;74.42;102000.31;5028658;28;20488;-46
2022/05/17 09:28:19;;;;;;;20.85;5.80;;;;;;;18.82;74.82;101995.31;5012506;28;20053;-49
2022/05/17 09:31:00;;;;;;;12.68;5.60;;;;;;;18.88;74.16;101996.88;5017392;28;20048;-52
2022/05/17 09:33:27;;;;;;;16.42;5.65;;;;;;;18.95;72.14;102005.63;5031513;28;20509;-51
2022/05/17 09:35:57;;;;;;;12.23;4.97;;;;;;;18.91;70.48;102008.16;5013537;28;20041;-48
2022/05/17 09:38:32;;;;;;;11.57;4.85;;;;;;;18.96;70.75;101999.00;5015023;28;20068;-50
2022/05/17 09:41:00;;;;;;;15.90;6.80;;;;;;;19.01;71.65;101993.41;5032462;28;20542;-49
2022/05/17 09:43:44;;;;;;;13.93;5.15;;;;;;;19.05;70.79;101999.97;5029609;28;20399;-49
2022/05/17 09:46:14;;;;;;;12.77;4.47;;;;;;;19.07;69.98;101994.13;5031632;28;20047;-51
2022/05/17 09:54:47;;;;;;;11.20;3.78;;;;;;;19.16;68.97;101982.13;5003939;28;20041;-49
2022/05/17 09:57:24;;;;;;;9.95;3.85;;;;;;;19.22;68.64;101985.66;5011775;28;20081;-52
2022/05/17 10:00:16;;;;;;;;;;;;;;;19.24;68.30;101988.94;5032198;28;20041;-49
2022/05/17 10:02:50;;;;;;;16.75;4.68;;;;;;;19.28;68.35;101983.63;5021950;28;20304;-51
2022/05/17 10:05:42;;;;;;;13.00;3.58;;;;;;;19.30;67.64;101981.41;5026887;28;20097;-49
2022/05/17 10:08:13;;;;;;;11.77;4.47;;;;;;;19.30;67.92;101982.22;5027865;28;21382;-46
2022/05/17 10:10:46;;;;;;;13.35;4.32;;;;;;;19.33;68.51;101980.78;5030977;28;20037;-46
2022/05/17 10:13:44;;;;;;;12.23;4.13;;;;;;;19.37;68.07;101976.31;5032181;28;20049;-48
2022/05/17 10:16:31;;;;;;;11.48;3.72;;;;;;;19.44;67.07;101971.22;5013613;28;20045;-46
2022/05/17 10:19:28;;;;;;;9.63;3.67;;;;;;;19.49;66.89;101967.56;5028655;28;20137;-49
2022/05/17 10:22:30;;;;;;;11.85;4.18;;;;;;;19.57;66.91;101964.91;4995726;28;20060;-47
2022/05/17 10:25:02;;;;;;;13.27;4.20;;;;;;;19.68;67.12;101964.81;5012952;28;20041;-48
2022/05/17 10:27:45;;;;;;;13.98;4.07;;;;;;;19.79;67.25;101963.50;5012892;28;20045;-49
2022/05/17 10:30:57;;;;;;;10.88;4.00;;;;;;;19.90;67.19;101955.84;5015614;28;20046;-51
2022/05/17 10:33:39;;;;;;;14.45;4.88;;;;;;;19.93;66.56;101958.00;4899389;29;20571;-47
2022/05/17 10:36:23;;;;;;;12.55;4.82;;;;;;;19.93;66.08;101956.06;4913960;29;20148;-48
2022/05/17 10:39:25;;;;;;;16.95;5.50;;;;;;;19.88;66.24;101947.84;4983537;28;20057;-49
2022/05/17 10:41:54;;;;;;;11.65;4.53;;;;;;;19.87;66.33;101954.53;4955002;28;20073;-48
2022/05/17 10:44:22;;;;;;;14.18;5.05;;;;;;;19.86;65.86;101955.63;5003695;28;20052;-48
2022/05/17 10:47:04;;;;;;;16.48;5.20;;;;;;;19.84;65.60;101948.75;5023471;28;20494;-49
2022/05/17 10:50:01;;;;;;;15.52;5.85;;;;;;;19.86;65.77;101961.16;4995572;28;20045;-47
2022/05/17 10:52:59;;;;;;;14.35;5.40;;;;;;;19.86;65.64;101952.88;4971064;28;20462;-47
2022/05/17 10:55:45;;;;;;;16.10;5.72;;;;;;;19.89;65.50;101954.19;5029436;28;20046;-47
2022/05/17 10:58:30;;;;;;;11.70;4.68;;;;;;;19.90;65.80;101942.03;5016611;28;20064;-49
2022/05/17 11:01:00;;;;;;;;;;;;;;;19.91;66.05;101952.78;5008022;28;20479;-49
2022/05/17 11:03:57;;;;;;;10.20;4.95;;;;;;;19.92;65.98;101954.44;5020034;28;19921;-47
2022/05/17 11:06:35;;;;;;;14.48;6.60;;;;;;;19.90;66.49;101948.38;5022611;28;20041;-47
2022/05/17 11:09:16;;;;;;;14.32;6.03;;;;;;;19.91;66.46;101950.00;5024154;28;20452;-46
2022/05/17 11:12:13;;;;;;;14.10;6.57;;;;;;;19.89;66.65;101946.75;5003846;28;20384;-49
2022/05/17 11:14:50;;;;;;;11.70;5.88;;;;;;;19.90;66.82;101937.31;5003524;28;20050;-47
2022/05/17 11:17:25;;;;;;;13.88;7.07;;;;;;;19.93;67.58;101939.47;5033778;28;20044;-49
2022/05/17 11:20:14;;;;;;;16.65;7.13;;;;;;;19.95;67.23;101926.16;5022614;28;20045;-50
2022/05/17 11:23:09;;;;;;;15.07;7.68;;;;;;;19.98;67.58;101933.84;5035408;28;20049;-48
2022/05/17 11:26:16;;;;;;;18.80;7.37;;;;;;;20.03;67.73;101921.84;5032814;28;20058;-49
2022/05/17 11:29:25;;;;;;;16.92;8.65;;;;;;;20.10;68.20;101924.22;4967897;28;20049;-50
2022/05/17 11:31:55;;;;;;;14.90;7.55;;;;;;;20.18;67.72;101920.75;5000593;28;20038;-47
2022/05/17 11:34:22;;;;;;;19.20;7.95;;;;;;;20.24;67.27;101911.22;5035260;28;20045;-48
2022/05/17 11:36:56;;;;;;;19.20;8.10;;;;;;;20.32;66.89;101921.56;5027871;28;20476;-48
2022/05/17 11:39:39;;;;;;;16.10;7.60;;;;;;;20.40;65.79;101911.75;4988281;28;20372;-49
2022/05/17 11:42:26;;;;;;;16.08;7.22;;;;;;;20.45;65.25;101902.53;5033684;28;20077;-48
2022/05/17 11:44:54;;;;;;;15.18;6.95;;;;;;;20.48;64.44;101904.66;5035173;28;20156;-51
2022/05/17 11:47:37;;;;;;;13.27;5.13;;;;;;;20.52;64.34;101898.19;5028749;28;20033;-48
2022/05/17 11:50:21;;;;;;;15.18;6.50;;;;;;;;;;5035121;28;20050;-48
2022/05/17 11:52:56;;;;;;;15.57;6.70;;;;;;;20.62;63.53;101889.69;5032979;28;20072;-47
2022/05/17 11:55:28;;;;;;;12.85;5.78;;;;;;;20.69;63.95;101886.50;5032414;28;20041;-50
2022/05/17 11:57:58;;;;;;;10.98;4.82;;;;;;;20.78;64.23;101890.19;5032265;28;20072;-52